Time;durP1;ratioP1;P1;durP2;ratioP2;P2;SDS_P1;SDS_P2;PMS_P1;PMS_P2;Temp;Humidity;BMP_temperature;BMP_pressure;BME280_temperature;BME280_humidity;BME280_pressure;Samples;Min_cycle;Max_cycle;Signal;HPM_P1;HPM_P2
2022/01/20 00:00:00;;;;;;;2.58;2.15;;;2.20;99.90;;;;;;4944898;29;20183;-79
2022/01/20 00:02:35;;;;;;;1.63;1.52;;;2.10;99.90;;;;;;4958358;28;20401;-80
2022/01/20 00:05:11;;;;;;;4.28;2.35;;;2.20;99.90;;;;;;4966296;28;20026;-80
2022/01/20 00:08:33;;;;;;;5.30;2.30;;;2.20;99.90;;;;;;4985524;28;20015;-79
2022/01/20 00:26:54;;;;;;;2.42;2.22;;;2.10;99.90;;;;;;4990348;28;20030;-78
2022/01/20 00:29:32;;;;;;;2.40;2.20;;;2.00;99.90;;;;;;5004641;28;20054;-78
2022/01/20 00:32:10;;;;;;;4.63;2.30;;;2.70;99.90;;;;;;4989079;28;20549;-79
2022/01/20 00:37:28;;;;;;;6.78;2.83;;;1.80;99.90;;;;;;4980450;28;20045;-81
2022/01/20 00:39:55;;;;;;;3.70;2.47;;;1.90;99.90;;;;;;4986937;28;20422;-79
2022/01/20 00:42:21;;;;;;;4.45;2.05;;;1.80;99.90;;;;;;4966330;28;20031;-78
2022/01/20 00:44:47;;;;;;;3.50;1.88;;;1.80;99.90;;;;;;4967609;28;20430;-80
2022/01/20 00:47:14;;;;;;;3.72;2.58;;;1.80;99.90;;;;;;4961214;28;20098;-77
2022/01/20 00:49:41;;;;;;;4.00;2.05;;;1.80;99.90;;;;;;4990248;28;20030;-78
2022/01/20 00:52:07;;;;;;;4.35;2.50;;;1.80;99.90;;;;;;4973635;28;20023;-78
2022/01/20 00:54:34;;;;;;;7.00;2.42;;;1.70;99.90;;;;;;5007093;28;20030;-78
2022/01/20 00:57:00;;;;;;;5.70;2.55;;;1.70;99.90;;;;;;4990697;28;20030;-79
2022/01/20 00:59:27;;;;;;;3.20;1.92;;;1.70;99.90;;;;;;5004503;28;20026;-80
2022/01/20 01:01:53;;;;;;;3.60;2.40;;;1.70;99.90;;;;;;4981753;28;20027;-81
2022/01/20 01:04:19;;;;;;;4.35;2.30;;;1.70;99.90;;;;;;4988486;28;20029;-85
2022/01/20 01:09:13;;;;;;;3.15;1.90;;;1.80;99.90;;;;;;4977011;28;20015;-79
2022/01/20 01:11:42;;;;;;;3.50;1.92;;;1.80;99.90;;;;;;4986000;28;20031;-79
2022/01/20 01:14:07;;;;;;;2.90;1.85;;;1.80;99.90;;;;;;5002195;28;20094;-79
2022/01/20 01:20:00;;;;;;;4.53;1.98;;;1.80;99.90;;;;;;5001029;28;20046;-80
2022/01/20 01:22:13;;;;;;;2.95;2.03;;;1.80;99.90;;;;;;4987311;28;20046;-79
2022/01/20 01:24:42;;;;;;;3.92;2.10;;;1.80;99.90;;;;;;5002495;28;20033;-80
2022/01/20 01:27:11;;;;;;;3.70;2.50;;;1.80;99.90;;;;;;4971147;28;20586;-81
2022/01/20 01:32:29;;;;;;;5.90;2.40;;;1.80;99.90;;;;;;4965318;29;20050;-80
2022/01/20 01:34:54;;;;;;;2.60;1.95;;;1.80;99.90;;;;;;4968411;29;20420;-79
2022/01/20 01:39:59;;;;;;;2.53;2.30;;;1.80;99.90;;;;;;4968932;29;20019;-80
2022/01/20 01:42:32;;;;;;;3.92;2.45;;;1.70;99.90;;;;;;4967887;29;20134;-79
2022/01/20 01:45:10;;;;;;;4.13;2.35;;;1.70;99.90;;;;;;4968769;28;20095;-80
2022/01/20 01:47:35;;;;;;;3.95;2.22;;;1.70;99.90;;;;;;4967706;29;20582;-81
2022/01/20 01:50:01;;;;;;;3.58;2.13;;;1.70;99.90;;;;;;4967738;29;20027;-77
2022/01/20 01:52:27;;;;;;;2.85;1.90;;;1.60;99.90;;;;;;4966259;29;20123;-79
2022/01/20 01:54:53;;;;;;;3.50;2.03;;;1.60;99.90;;;;;;4966007;29;20028;-80
2022/01/20 01:57:18;;;;;;;3.78;1.90;;;1.50;99.90;;;;;;4965598;29;20356;-79
2022/01/20 01:59:44;;;;;;;3.72;2.05;;;1.50;99.90;;;;;;4967322;29;20380;-80
2022/01/20 02:02:10;;;;;;;3.40;2.03;;;1.50;99.90;;;;;;4967588;29;20023;-79
2022/01/20 02:04:36;;;;;;;3.45;1.83;;;1.40;99.90;;;;;;4965187;29;20031;-80
2022/01/20 02:08:04;;;;;;;2.78;1.90;;;1.40;99.90;;;;;;4965421;29;20487;-79
2022/01/20 02:20:39;;;;;;;5.57;2.60;;;1.30;99.90;;;;;;4960665;28;20050;-79
2022/01/20 02:23:05;;;;;;;1.98;1.60;;;1.40;99.90;;;;;;4957533;29;20524;-81
2022/01/20 02:25:34;;;;;;;3.38;2.15;;;1.40;99.90;;;;;;4961817;29;20023;-80
2022/01/20 02:28:02;;;;;;;5.53;2.80;;;1.30;99.90;;;;;;4961444;29;20031;-80
2022/01/20 02:30:29;;;;;;;4.38;2.08;;;1.30;99.90;;;;;;4946768;29;20024;-80
2022/01/20 02:33:17;;;;;;;3.42;2.00;;;1.30;99.90;;;;;;4962952;29;20066;-79
2022/01/20 02:35:52;;;;;;;5.50;2.05;;;1.50;99.90;;;;;;4960206;28;20051;-81
2022/01/20 02:38:35;;;;;;;2.83;1.80;;;1.20;99.90;;;;;;4959704;28;20078;-80
2022/01/20 02:46:32;;;;;;;2.35;1.75;;;1.30;99.90;;;;;;4955368;29;20090;-79
2022/01/20 02:48:57;;;;;;;2.70;1.98;;;1.30;99.90;;;;;;4954082;29;20031;-79
2022/01/20 02:51:23;;;;;;;4.70;2.45;;;1.30;99.90;;;;;;4952793;29;20510;-82
2022/01/20 02:53:49;;;;;;;5.50;3.17;;;1.20;99.90;;;;;;4950890;29;20039;-80
2022/01/20 02:56:15;;;;;;;3.72;2.47;;;1.30;99.90;;;;;;4952858;29;20058;-79
2022/01/20 02:58:41;;;;;;;2.08;1.70;;;1.20;99.90;;;;;;4951922;29;20685;-79
2022/01/20 03:01:07;;;;;;;2.90;1.58;;;1.30;99.90;;;;;;4951629;29;20026;-80
2022/01/20 03:03:34;;;;;;;4.53;2.38;;;1.40;99.90;;;;;;4953582;28;20091;-80
2022/01/20 03:06:00;;;;;;;3.47;1.98;;;1.50;99.90;;;;;;4955047;29;20037;-81
2022/01/20 03:08:26;;;;;;;2.97;1.77;;;1.60;99.90;;;;;;4958731;29;20026;-79
2022/01/20 03:10:55;;;;;;;1.92;1.48;;;1.70;99.90;;;;;;4958176;29;20034;-80
2022/01/20 03:13:21;;;;;;;2.22;1.73;;;1.60;99.90;;;;;;4957040;29;20042;-81
2022/01/20 03:15:47;;;;;;;2.38;1.65;;;1.80;99.90;;;;;;4956895;29;20027;-81
2022/01/20 03:18:12;;;;;;;2.45;1.23;;;1.70;99.90;;;;;;4955832;29;20190;-81
2022/01/20 03:20:39;;;;;;;2.25;1.75;;;1.90;99.90;;;;;;4958441;29;20034;-79
2022/01/20 03:23:05;;;;;;;2.70;1.42;;;1.90;99.90;;;;;;4955599;29;20121;-81
2022/01/20 03:25:31;;;;;;;1.65;1.05;;;1.90;99.90;;;;;;4954096;29;20484;-80
2022/01/20 03:27:57;;;;;;;1.58;1.45;;;1.90;99.90;;;;;;4955939;29;20054;-80
2022/01/20 03:30:23;;;;;;;3.13;1.77;;;1.90;99.90;;;;;;4955420;29;20019;-80
2022/01/20 03:32:50;;;;;;;1.88;1.40;;;2.00;99.90;;;;;;4954258;29;20061;-79
2022/01/20 03:35:16;;;;;;;4.15;2.00;;;1.90;99.90;;;;;;4952960;29;20054;-80
2022/01/20 03:37:42;;;;;;;1.67;1.42;;;1.90;99.90;;;;;;4953848;29;20026;-81
2022/01/20 03:40:09;;;;;;;2.60;1.42;;;1.90;99.90;;;;;;4955370;29;20019;-79
2022/01/20 03:42:35;;;;;;;1.80;1.23;;;1.90;99.90;;;;;;4955365;29;20505;-79
2022/01/20 03:45:03;;;;;;;3.65;2.22;;;1.90;99.90;;;;;;4955587;29;20023;-78
2022/01/20 03:47:29;;;;;;;2.63;1.80;;;1.90;99.90;;;;;;4956569;29;20050;-80
2022/01/20 03:52:27;;;;;;;2.35;1.40;;;1.90;99.90;;;;;;4957649;28;20090;-80
2022/01/20 03:54:53;;;;;;;1.98;1.13;;;2.00;99.90;;;;;;4960086;29;20488;-80
2022/01/20 03:57:19;;;;;;;1.70;1.40;;;2.00;99.90;;;;;;4959042;29;20400;-82
2022/01/20 03:59:46;;;;;;;1.70;1.58;;;2.00;99.90;;;;;;4963095;29;20028;-80
2022/01/20 04:02:12;;;;;;;1.98;1.27;;;2.10;99.90;;;;;;4960651;29;20033;-79
2022/01/20 04:04:38;;;;;;;2.08;1.40;;;2.10;99.90;;;;;;4963196;29;20055;-80
2022/01/20 04:07:04;;;;;;;1.33;0.98;;;2.10;99.90;;;;;;4962495;29;20611;-79
2022/01/20 04:09:29;;;;;;;3.05;1.65;;;2.00;99.90;;;;;;4962624;29;20027;-80
2022/01/20 04:11:55;;;;;;;2.05;1.45;;;2.00;99.90;;;;;;4963616;29;20034;-80
2022/01/20 04:14:23;;;;;;;1.48;1.20;;;2.10;99.90;;;;;;4963726;29;20098;-79
2022/01/20 04:17:16;;;;;;;1.15;0.93;;;2.10;99.90;;;;;;4965274;29;20051;-79
2022/01/20 04:19:36;;;;;;;2.33;1.80;;;2.10;99.90;;;;;;4966236;29;20042;-80
2022/01/20 04:22:02;;;;;;;2.03;1.90;;;2.20;99.90;;;;;;4965474;29;20039;-79
2022/01/20 04:24:28;;;;;;;1.90;1.25;;;2.10;99.90;;;;;;4966354;28;20027;-80
2022/01/20 04:26:54;;;;;;;1.77;1.30;;;2.10;99.90;;;;;;4966225;29;20023;-79
2022/01/20 04:29:20;;;;;;;2.83;1.42;;;2.10;99.90;;;;;;4963579;29;20035;-80
2022/01/20 04:31:46;;;;;;;2.47;1.40;;;2.10;99.90;;;;;;4964191;29;20043;-80
2022/01/20 04:34:12;;;;;;;2.22;1.23;;;2.10;99.90;;;;;;4970613;28;20091;-83
2022/01/20 04:36:42;;;;;;;1.92;1.67;;;2.10;99.90;;;;;;4977592;28;20031;-80
2022/01/20 04:39:14;;;;;;;7.20;1.70;;;2.10;99.90;;;;;;4975762;29;20087;-80
2022/01/20 04:41:41;;;;;;;2.78;1.65;;;2.10;99.90;;;;;;4976082;28;20025;-82
2022/01/20 04:44:17;;;;;;;2.35;1.38;;;2.10;99.90;;;;;;4974551;29;20030;-82
2022/01/20 04:46:52;;;;;;;2.65;1.90;;;2.10;99.90;;;;;;4973177;28;20028;-81
2022/01/20 04:57:51;;;;;;;3.45;1.48;;;1.80;99.90;;;;;;4953845;28;20042;-80
2022/01/20 05:00:17;;;;;;;3.13;1.70;;;1.80;99.90;;;;;;4961408;28;20091;-79
2022/01/20 05:02:43;;;;;;;3.13;1.98;;;1.70;99.90;;;;;;4968357;29;20031;-82
2022/01/20 05:05:09;;;;;;;3.05;1.98;;;1.70;99.90;;;;;;4962333;29;20023;-80
2022/01/20 05:07:35;;;;;;;3.05;2.28;;;1.60;99.90;;;;;;4963560;29;20140;-81
2022/01/20 05:10:05;;;;;;;3.08;2.47;;;1.60;99.90;;;;;;4963610;29;20152;-82
2022/01/20 05:12:59;;;;;;;3.78;2.22;;;1.70;99.90;;;;;;4962915;29;20036;-81
2022/01/20 05:15:17;;;;;;;3.80;2.15;;;1.70;99.90;;;;;;4960801;29;20145;-82
2022/01/20 05:17:43;;;;;;;2.30;1.90;;;1.70;99.90;;;;;;4958614;29;20116;-81
2022/01/20 05:20:09;;;;;;;2.15;1.65;;;1.70;99.90;;;;;;4959378;29;20057;-80
2022/01/20 05:22:35;;;;;;;4.93;2.20;;;1.70;99.90;;;;;;4962272;28;20031;-81
2022/01/20 05:25:02;;;;;;;5.18;2.40;;;2.10;99.90;;;;;;4965462;29;20031;-79
2022/01/20 05:27:28;;;;;;;3.70;2.42;;;1.80;99.90;;;;;;4967432;29;20118;-82
2022/01/20 05:29:55;;;;;;;3.38;2.35;;;1.80;99.90;;;;;;4967035;29;20031;-81
2022/01/20 05:32:21;;;;;;;2.95;2.33;;;1.80;99.90;;;;;;4964013;29;20129;-81
2022/01/20 05:34:47;;;;;;;4.35;2.58;;;1.90;99.90;;;;;;4965602;29;20079;-83
2022/01/20 05:37:13;;;;;;;3.55;2.70;;;1.80;99.90;;;;;;4973621;28;20027;-81
2022/01/20 05:39:41;;;;;;;3.63;2.83;;;1.90;99.90;;;;;;4965812;29;20030;-82
2022/01/20 05:42:07;;;;;;;3.50;2.03;;;1.90;99.90;;;;;;4957113;29;20578;-85
2022/01/20 05:44:33;;;;;;;3.88;1.90;;;1.90;99.90;;;;;;4961713;29;20034;-88
2022/01/20 05:46:58;;;;;;;3.25;2.20;;;1.90;99.90;;;;;;4968817;29;20035;-80
2022/01/20 05:49:24;;;;;;;4.63;2.55;;;1.90;99.90;;;;;;4976999;28;20092;-80
2022/01/20 05:51:52;;;;;;;3.72;2.42;;;2.00;99.90;;;;;;4976454;29;20031;-81
2022/01/20 05:54:19;;;;;;;7.07;3.03;;;1.90;99.90;;;;;;4976064;29;20054;-83
2022/01/20 05:56:45;;;;;;;2.97;2.33;;;1.90;99.90;;;;;;4976981;29;20015;-80
2022/01/20 05:59:11;;;;;;;3.90;2.63;;;1.90;99.90;;;;;;4967701;29;20046;-82
2022/01/20 06:01:38;;;;;;;4.25;2.00;;;1.90;99.90;;;;;;4967612;29;20232;-79
2022/01/20 06:04:06;;;;;;;4.78;3.00;;;1.90;99.90;;;;;;4956462;29;20031;-82
2022/01/20 06:06:31;;;;;;;3.58;2.53;;;1.90;99.90;;;;;;4951670;29;20027;-83
2022/01/20 06:08:57;;;;;;;4.22;2.33;;;1.90;99.90;;;;;;4951608;29;20078;-82
2022/01/20 06:11:23;;;;;;;3.42;2.47;;;1.90;99.90;;;;;;4951701;28;20023;-85
2022/01/20 06:13:49;;;;;;;2.70;2.30;;;1.80;99.90;;;;;;4950826;29;20027;-84
2022/01/20 06:16:15;;;;;;;3.60;2.50;;;1.90;99.90;;;;;;4951959;29;20086;-89
2022/01/20 06:18:41;;;;;;;3.20;2.35;;;1.90;99.90;;;;;;4961085;29;20039;-82
2022/01/20 06:21:07;;;;;;;4.10;2.80;;;1.90;99.90;;;;;;4967185;28;20054;-82
2022/01/20 06:23:33;;;;;;;3.95;2.40;;;1.80;99.90;;;;;;4955050;29;20027;-84
2022/01/20 06:26:04;;;;;;;6.28;2.95;;;;;;;;;;4954755;29;20128;-82
2022/01/20 06:28:34;;;;;;;4.82;3.35;;;1.80;99.90;;;;;;4953910;29;20158;-82
2022/01/20 06:31:00;;;;;;;4.70;3.47;;;1.80;99.90;;;;;;4949734;29;20388;-83
2022/01/20 06:33:26;;;;;;;5.05;2.63;;;1.70;99.90;;;;;;4974649;28;20055;-88
2022/01/20 06:35:52;;;;;;;3.85;3.00;;;1.80;99.90;;;;;;4964655;28;20026;-81
2022/01/20 06:38:26;;;;;;;6.22;3.17;;;1.80;99.90;;;;;;5011192;28;20014;-85
2022/01/20 06:40:52;;;;;;;5.75;3.50;;;1.80;99.90;;;;;;4967244;28;20417;-85
2022/01/20 06:43:18;;;;;;;4.93;3.10;;;1.80;99.90;;;;;;4977599;28;20031;-94
2022/01/20 06:45:44;;;;;;;4.20;2.33;;;1.80;99.90;;;;;;4986364;28;20026;-77
2022/01/20 06:48:09;;;;;;;3.85;2.45;;;1.80;99.90;;;;;;4969887;28;20030;-89
2022/01/20 06:50:35;;;;;;;5.70;4.50;;;1.80;99.90;;;;;;4953858;28;20325;-83
2022/01/20 06:53:01;;;;;;;5.80;2.83;;;1.80;99.90;;;;;;4985027;28;20062;-89
2022/01/20 06:55:27;;;;;;;6.47;2.85;;;1.80;99.90;;;;;;4970717;28;20038;-80
2022/01/20 06:57:52;;;;;;;3.30;1.98;;;1.80;99.90;;;;;;4954162;28;20022;-91
2022/01/20 07:00:21;;;;;;;5.35;3.08;;;1.90;99.90;;;;;;4977591;28;20498;-88
2022/01/20 07:02:47;;;;;;;4.60;3.13;;;1.90;99.90;;;;;;4953448;28;20026;-92
2022/01/20 07:05:16;;;;;;;5.38;3.10;;;1.90;99.90;;;;;;4956501;28;20022;-88
2022/01/20 07:07:42;;;;;;;4.45;2.35;;;1.90;99.90;;;;;;4960146;28;20022;-86
2022/01/20 07:10:09;;;;;;;2.90;2.13;;;1.90;99.90;;;;;;4975048;28;20026;-79
2022/01/20 07:12:45;;;;;;;5.20;3.28;;;1.90;99.90;;;;;;4961093;28;20562;-93
2022/01/20 07:15:13;;;;;;;6.30;2.42;;;2.00;99.90;;;;;;4933771;29;20385;-80
2022/01/20 07:17:39;;;;;;;5.85;3.10;;;1.90;99.90;;;;;;4950229;29;20923;-80
2022/01/20 07:20:06;;;;;;;5.80;3.58;;;1.90;99.90;;;;;;4934384;29;20115;-80
2022/01/20 07:22:32;;;;;;;5.90;3.03;;;1.90;99.90;;;;;;4955357;28;20023;-94
2022/01/20 07:24:58;;;;;;;5.72;2.60;;;;;;;;;;4940863;29;20042;-87
2022/01/20 07:27:28;;;;;;;3.35;1.83;;;;;;;;;;4961796;28;20079;-83
2022/01/20 07:29:55;;;;;;;4.37;2.30;;;1.90;99.90;;;;;;4962880;28;20011;-84
2022/01/20 07:32:23;;;;;;;4.55;2.47;;;1.90;99.90;;;;;;4958936;28;20501;-85
2022/01/20 07:34:49;;;;;;;5.47;2.38;;;;;;;;;;4940429;28;20012;-85
2022/01/20 07:37:16;;;;;;;5.97;2.95;;;;;;;;;;4949698;29;20019;-85
2022/01/20 07:39:43;;;;;;;4.72;2.33;;;;;;;;;;4948330;28;20078;-84
2022/01/20 07:42:09;;;;;;;6.05;2.83;;;;;;;;;;4942338;29;20511;-90
2022/01/20 07:44:35;;;;;;;6.75;3.58;;;;;;;;;;4935656;29;20023;-95
2022/01/20 07:47:01;;;;;;;5.38;3.65;;;;;;;;;;4934296;29;20403;-90
2022/01/20 07:49:27;;;;;;;7.90;3.00;;;;;;;;;;4935523;29;20019;-91
2022/01/20 07:51:54;;;;;;;7.50;2.75;;;;;;;;;;4952804;29;20051;-81
2022/01/20 07:54:21;;;;;;;6.93;3.05;;;1.90;99.90;;;;;;4934547;29;20343;-89
2022/01/20 07:56:49;;;;;;;3.22;2.83;;;;;;;;;;4935572;29;20028;-89
2022/01/20 07:59:15;;;;;;;4.18;2.67;;;;;;;;;;4934792;29;20066;-94
2022/01/20 08:01:41;;;;;;;4.68;3.17;;;;;;;;;;4934875;29;20040;-92
2022/01/20 08:04:07;;;;;;;3.75;2.92;;;;;;;;;;4945326;29;20031;-88
2022/01/20 08:06:33;;;;;;;4.18;2.67;;;;;;;;;;4935610;29;20113;-94
2022/01/20 08:09:00;;;;;;;4.68;2.67;;;2.00;99.90;;;;;;4938280;29;20100;-83
2022/01/20 08:11:26;;;;;;;4.10;2.78;;;2.00;99.90;;;;;;4968648;29;20027;-79
2022/01/20 08:13:52;;;;;;;6.78;2.47;;;2.00;99.90;;;;;;4956239;29;20050;-79
2022/01/20 08:16:19;;;;;;;6.90;3.38;;;2.00;99.90;;;;;;4971624;29;20038;-79
2022/01/20 08:18:47;;;;;;;7.20;3.33;;;2.00;99.90;;;;;;4962061;29;20035;-78
2022/01/20 08:21:13;;;;;;;6.20;3.15;;;2.00;99.90;;;;;;4964956;29;20058;-79
2022/01/20 08:23:41;;;;;;;5.57;2.65;;;2.00;99.90;;;;;;4967435;29;20023;-79
2022/01/20 08:26:08;;;;;;;7.38;3.15;;;2.00;99.90;;;;;;4950803;29;20027;-79
2022/01/20 08:28:34;;;;;;;6.93;3.22;;;2.00;99.90;;;;;;4962840;29;20509;-79
2022/01/20 08:30:59;;;;;;;3.97;2.60;;;2.00;99.90;;;;;;4968533;29;20096;-79
2022/01/20 08:33:25;;;;;;;4.50;3.30;;;2.10;99.90;;;;;;4942640;29;20078;-79
2022/01/20 08:35:51;;;;;;;5.55;3.40;;;2.00;99.90;;;;;;4945172;29;20102;-79
2022/01/20 08:38:17;;;;;;;4.22;2.30;;;2.00;99.90;;;;;;4950407;29;20099;-80
2022/01/20 08:40:44;;;;;;;5.47;3.50;;;2.10;99.90;;;;;;4952595;29;20031;-79
2022/01/20 08:43:10;;;;;;;6.43;3.67;;;2.00;99.90;;;;;;4952605;29;20033;-79
2022/01/20 08:45:38;;;;;;;9.00;3.45;;;2.00;99.90;;;;;;4947873;29;20056;-80
2022/01/20 08:48:04;;;;;;;6.30;3.67;;;2.10;99.90;;;;;;4944795;29;20060;-79
2022/01/20 08:50:32;;;;;;;6.88;3.10;;;2.10;99.90;;;;;;4939573;29;20028;-89
2022/01/20 08:52:58;;;;;;;5.28;3.15;;;2.10;99.90;;;;;;4947728;29;20051;-83
2022/01/20 08:55:28;;;;;;;6.88;3.70;;;3.00;99.90;;;;;;4940119;29;20815;-86
2022/01/20 08:57:56;;;;;;;7.75;4.00;;;2.20;99.90;;;;;;4948256;29;20473;-80
2022/01/20 09:00:26;;;;;;;8.48;3.92;;;2.20;99.90;;;;;;4951157;29;20049;-87
2022/01/20 09:02:51;;;;;;;;;;;2.10;99.90;;;;;;4941642;29;20032;-82
2022/01/20 09:05:17;;;;;;;8.40;4.15;;;2.20;99.90;;;;;;4947037;29;19907;-80
2022/01/20 09:07:43;;;;;;;9.35;4.45;;;2.10;99.90;;;;;;4934286;29;20070;-83
2022/01/20 09:10:17;;;;;;;9.18;3.95;;;2.20;99.90;;;;;;4939422;29;20031;-79
2022/01/20 09:15:31;;;;;;;7.60;4.05;;;2.30;99.90;;;;;;4945937;29;20539;-82
2022/01/20 09:18:10;;;;;;;7.70;3.20;;;2.30;99.90;;;;;;4945331;28;20052;-84
2022/01/20 09:20:38;;;;;;;8.00;4.38;;;2.30;99.90;;;;;;4960471;28;20071;-81
2022/01/20 09:23:05;;;;;;;8.63;4.22;;;2.30;99.90;;;;;;4934617;29;20246;-83
2022/01/20 09:25:31;;;;;;;9.88;4.85;;;;;;;;;;4949129;29;20030;-81
2022/01/20 09:27:57;;;;;;;6.68;3.20;;;2.30;99.90;;;;;;4964761;29;20027;-79
2022/01/20 09:30:26;;;;;;;9.55;4.15;;;2.40;99.90;;;;;;4966315;29;20003;-79
2022/01/20 09:32:58;;;;;;;11.52;4.60;;;2.40;99.90;;;;;;4982306;28;20081;-83
2022/01/20 09:35:30;;;;;;;10.75;4.53;;;2.40;99.90;;;;;;4974823;28;20090;-83
2022/01/20 09:37:57;;;;;;;8.90;3.83;;;;;;;;;;4968891;28;20342;-79
2022/01/20 09:40:23;;;;;;;10.68;5.35;;;2.50;99.90;;;;;;4992858;28;20340;-82
2022/01/20 09:42:48;;;;;;;6.18;3.60;;;2.50;99.90;;;;;;4987588;28;20045;-81
2022/01/20 09:45:15;;;;;;;7.07;3.65;;;2.40;99.90;;;;;;4965287;28;20487;-79
2022/01/20 09:47:43;;;;;;;8.45;3.85;;;2.40;99.90;;;;;;4988807;28;20374;-87
2022/01/20 09:50:11;;;;;;;12.93;4.85;;;2.40;99.90;;;;;;4994390;28;20030;-83
2022/01/20 09:52:37;;;;;;;9.82;4.75;;;2.40;99.90;;;;;;4977918;28;20050;-82
2022/01/20 09:55:03;;;;;;;8.50;3.97;;;2.40;99.90;;;;;;5006130;28;20018;-79
2022/01/20 09:57:28;;;;;;;7.70;3.97;;;2.40;99.90;;;;;;4992423;28;20062;-82
2022/01/20 09:59:54;;;;;;;9.38;4.85;;;2.40;99.90;;;;;;5004348;28;20519;-82
2022/01/20 10:02:22;;;;;;;7.55;3.55;;;2.40;99.90;;;;;;5002473;28;20034;-83
2022/01/20 10:04:49;;;;;;;9.05;3.97;;;2.30;99.90;;;;;;4996720;28;20112;-81
2022/01/20 10:07:15;;;;;;;6.32;3.55;;;2.40;99.90;;;;;;4978101;28;20023;-82
2022/01/20 10:09:47;;;;;;;10.73;4.53;;;2.40;99.90;;;;;;4997424;28;20047;-82
2022/01/20 10:12:15;;;;;;;6.53;4.15;;;2.40;99.90;;;;;;4970553;28;20126;-83
2022/01/20 10:14:54;;;;;;;8.00;4.22;;;2.40;99.90;;;;;;4970787;28;20383;-80
2022/01/20 10:17:24;;;;;;;8.70;3.93;;;2.40;99.90;;;;;;4982714;28;20042;-89
2022/01/20 10:19:57;;;;;;;10.65;4.22;;;2.40;99.90;;;;;;4958464;28;20027;-79
2022/01/20 10:22:24;;;;;;;6.28;3.30;;;2.40;99.90;;;;;;4971612;28;20074;-83
2022/01/20 10:24:58;;;;;;;8.00;3.63;;;2.50;99.90;;;;;;4979171;28;20026;-81
2022/01/20 10:27:24;;;;;;;8.70;4.43;;;2.50;99.90;;;;;;4973520;28;20031;-79
2022/01/20 10:30:02;;;;;;;5.35;3.35;;;2.60;99.90;;;;;;4989279;28;20376;-80
2022/01/20 10:32:39;;;;;;;8.32;3.90;;;2.70;99.90;;;;;;4991310;28;20082;-82
2022/01/20 10:35:06;;;;;;;5.55;3.53;;;2.80;99.90;;;;;;4975386;28;20022;-79
2022/01/20 10:37:32;;;;;;;4.95;3.20;;;2.80;99.90;;;;;;4979430;28;20098;-81
2022/01/20 10:40:11;;;;;;;5.35;3.20;;;2.80;99.90;;;;;;4973617;28;20003;-84
2022/01/20 10:42:40;;;;;;;6.55;3.35;;;2.80;99.90;;;;;;5005824;28;20031;-82
2022/01/20 10:45:06;;;;;;;3.60;2.60;;;2.90;99.90;;;;;;4964271;28;20033;-84
2022/01/20 10:47:36;;;;;;;7.13;3.30;;;2.70;99.90;;;;;;4971821;28;20050;-83
2022/01/20 10:50:23;;;;;;;;;;;2.70;99.90;;;;;;4992114;28;20051;-78
2022/01/20 10:52:52;;;;;;;12.13;3.30;;;2.80;99.90;;;;;;4992494;28;19918;-79
2022/01/20 10:55:27;;;;;;;7.97;3.90;;;2.80;99.90;;;;;;4975391;28;20092;-84
2022/01/20 10:57:55;;;;;;;7.03;4.10;;;2.70;99.90;;;;;;4954778;28;20044;-81
2022/01/20 11:00:25;;;;;;;7.55;4.35;;;2.70;99.90;;;;;;4954474;28;20074;-86
2022/01/20 11:02:56;;;;;;;8.70;4.13;;;2.60;99.90;;;;;;4960787;28;20030;-86
2022/01/20 11:05:23;;;;;;;6.32;4.00;;;2.70;99.90;;;;;;4981801;28;20046;-82
2022/01/20 11:07:53;;;;;;;5.90;2.97;;;2.90;99.90;;;;;;4985845;28;20015;-79
2022/01/20 11:10:21;;;;;;;12.52;4.65;;;3.10;99.90;;;;;;4991125;28;20027;-79
2022/01/20 11:12:47;;;;;;;5.03;3.80;;;3.30;99.90;;;;;;5004558;28;20110;-79
2022/01/20 11:15:17;;;;;;;4.18;2.55;;;3.30;99.90;;;;;;4991291;28;20030;-78
2022/01/20 11:17:44;;;;;;;6.25;3.58;;;3.50;99.90;;;;;;4970303;28;20027;-81
2022/01/20 11:20:26;;;;;;;7.47;3.65;;;3.60;99.90;;;;;;4993516;28;20033;-80
2022/01/20 11:23:20;;;;;;;7.00;3.78;;;3.60;99.90;;;;;;4994361;28;20054;-80
2022/01/20 11:25:51;;;;;;;8.23;3.38;;;3.60;99.90;;;;;;4978489;28;20094;-79
2022/01/20 11:28:16;;;;;;;7.53;3.40;;;3.60;99.90;;;;;;4973445;28;20046;-81
2022/01/20 11:30:57;;;;;;;6.90;3.25;;;3.60;99.90;;;;;;4969886;28;20054;-80
2022/01/20 11:33:36;;;;;;;4.60;3.00;;;3.60;99.90;;;;;;4988135;28;20047;-80
2022/01/20 11:36:05;;;;;;;;;;;3.50;99.90;;;;;;4986925;28;20050;-80
2022/01/20 11:38:53;;;;;;;5.03;3.10;;;3.30;99.90;;;;;;4989475;28;19912;-80
2022/01/20 11:41:22;;;;;;;5.63;3.60;;;3.30;99.90;;;;;;4989917;28;20023;-83
2022/01/20 11:43:51;;;;;;;5.25;3.17;;;3.30;99.90;;;;;;4973578;28;20019;-82
2022/01/20 11:46:20;;;;;;;8.43;2.80;;;3.40;99.90;;;;;;4979460;28;20026;-84
2022/01/20 11:49:01;;;;;;;4.18;3.28;;;3.40;99.90;;;;;;4992997;28;20285;-80
2022/01/20 11:51:48;;;;;;;8.63;3.90;;;3.50;99.90;;;;;;4983777;28;20074;-80
2022/01/20 11:54:36;;;;;;;8.13;3.00;;;3.40;99.90;;;;;;4970557;28;20051;-82
2022/01/20 11:57:10;;;;;;;3.88;2.67;;;3.40;99.90;;;;;;4969367;28;20505;-79
2022/01/20 11:59:42;;;;;;;3.17;2.53;;;3.30;99.90;;;;;;4974733;28;20023;-82
2022/01/20 12:02:09;;;;;;;5.15;2.75;;;3.40;99.90;;;;;;4957089;28;20011;-78
2022/01/20 12:04:40;;;;;;;6.53;2.55;;;3.50;99.90;;;;;;4989328;28;20254;-80
2022/01/20 12:07:08;;;;;;;5.85;1.90;;;3.50;99.90;;;;;;4973604;28;20035;-79
2022/01/20 12:09:39;;;;;;;5.57;2.10;;;3.50;99.90;;;;;;4991859;28;20074;-80
2022/01/20 12:12:26;;;;;;;7.40;3.08;;;3.50;99.90;;;;;;4993824;28;20549;-79
2022/01/20 12:14:52;;;;;;;4.30;2.08;;;3.50;99.90;;;;;;5009361;28;20038;-77
2022/01/20 12:17:18;;;;;;;6.68;3.05;;;3.70;99.90;;;;;;4992471;28;20097;-80
2022/01/20 12:19:53;;;;;;;4.15;2.85;;;3.70;99.90;;;;;;4977216;28;20053;-79
2022/01/20 12:22:19;;;;;;;7.57;3.05;;;;;;;;;;4974766;28;20089;-80
2022/01/20 12:24:56;;;;;;;13.30;4.13;;;3.50;99.90;;;;;;5009603;28;20019;-82
2022/01/20 12:27:25;;;;;;;4.90;3.35;;;3.50;99.90;;;;;;4986740;28;20027;-81
2022/01/20 12:29:52;;;;;;;6.25;2.33;;;3.50;99.90;;;;;;4968171;28;20023;-79
2022/01/20 12:32:19;;;;;;;10.20;2.50;;;3.60;99.90;;;;;;4967561;28;20558;-81
2022/01/20 12:35:05;;;;;;;7.07;3.40;;;3.60;99.90;;;;;;4977024;28;20027;-79
2022/01/20 12:37:37;;;;;;;6.00;3.20;;;3.60;99.90;;;;;;5008686;28;20095;-79
2022/01/20 12:40:17;;;;;;;7.32;3.03;;;3.70;99.90;;;;;;4978603;28;20038;-79
2022/01/20 12:42:47;;;;;;;5.10;3.40;;;3.90;99.90;;;;;;4996807;28;20019;-81
2022/01/20 12:48:15;;;;;;;3.55;1.90;;;4.00;99.90;;;;;;4979222;28;20089;-83
2022/01/20 12:50:59;;;;;;;4.88;2.05;;;3.90;99.90;;;;;;4965739;28;20034;-81
2022/01/20 12:53:33;;;;;;;2.85;1.98;;;4.00;99.90;;;;;;4965078;28;20106;-82
2022/01/20 12:56:04;;;;;;;6.93;2.00;;;4.00;99.90;;;;;;4983646;28;20625;-83
2022/01/20 12:58:30;;;;;;;11.73;3.63;;;4.00;99.90;;;;;;4974394;28;20069;-82
2022/01/20 13:01:05;;;;;;;5.10;2.42;;;4.00;99.90;;;;;;4997533;28;20022;-82
2022/01/20 13:03:39;;;;;;;2.38;1.85;;;4.00;99.90;;;;;;4997668;28;20038;-83
2022/01/20 13:06:06;;;;;;;8.05;2.92;;;4.00;99.90;;;;;;4988608;28;20093;-79
2022/01/20 13:08:38;;;;;;;5.95;2.88;;;4.00;99.90;;;;;;4978680;28;20107;-80
2022/01/20 13:11:13;;;;;;;4.25;1.83;;;4.10;99.90;;;;;;4992865;28;20026;-79
2022/01/20 13:13:39;;;;;;;6.00;2.50;;;4.30;99.90;;;;;;4987216;28;20050;-79
2022/01/20 13:16:15;;;;;;;4.72;2.05;;;4.80;99.90;;;;;;4988426;28;20039;-79
2022/01/20 13:18:57;;;;;;;6.72;2.70;;;6.70;99.90;;;;;;4976950;28;20027;-80
2022/01/20 13:21:54;;;;;;;8.13;2.70;;;5.60;99.90;;;;;;4966244;28;20186;-80
2022/01/20 13:24:30;;;;;;;10.80;2.40;;;5.60;99.90;;;;;;4966794;28;20035;-80
2022/01/20 13:26:57;;;;;;;5.53;2.33;;;5.30;99.90;;;;;;4971728;28;20085;-81
2022/01/20 13:29:24;;;;;;;4.55;3.17;;;4.90;99.90;;;;;;5019437;23;20077;-84
2022/01/20 13:31:54;;;;;;;11.52;4.80;;;4.40;99.90;;;;;;4984609;28;20031;-79
2022/01/20 13:34:20;;;;;;;5.75;2.30;;;4.70;99.90;;;;;;4992098;28;20058;-79
2022/01/20 13:36:54;;;;;;;5.00;2.25;;;5.40;99.90;;;;;;4993284;28;20023;-81
2022/01/20 13:39:37;;;;;;;5.40;2.00;;;6.10;99.90;;;;;;4976451;28;20081;-81
2022/01/20 13:42:26;;;;;;;8.80;3.40;;;5.00;99.90;;;;;;4975152;28;20422;-78
2022/01/20 13:45:20;;;;;;;8.38;2.92;;;4.90;99.90;;;;;;4975182;28;20561;-80
2022/01/20 13:47:59;;;;;;;4.50;2.22;;;5.10;99.90;;;;;;4962960;28;20042;-80
2022/01/20 13:50:28;;;;;;;6.60;2.10;;;5.40;99.90;;;;;;4978108;28;20161;-84
2022/01/20 13:52:59;;;;;;;5.15;2.78;;;5.30;99.90;;;;;;4999294;28;20058;-82
2022/01/20 13:55:36;;;;;;;5.70;2.17;;;5.10;99.90;;;;;;4999167;28;20021;-82
2022/01/20 13:58:16;;;;;;;4.22;1.70;;;4.90;99.90;;;;;;4990813;28;20054;-82
2022/01/20 14:00:42;;;;;;;3.72;1.80;;;4.60;99.90;;;;;;4959537;28;20063;-80
2022/01/20 14:03:08;;;;;;;4.80;1.83;;;4.50;99.90;;;;;;4972241;28;20080;-79
2022/01/20 14:05:34;;;;;;;4.90;1.70;;;4.60;99.90;;;;;;4986746;28;20026;-82
2022/01/20 14:08:02;;;;;;;8.82;2.15;;;4.70;99.90;;;;;;4990202;28;20081;-80
2022/01/20 14:10:29;;;;;;;6.53;2.00;;;4.60;99.90;;;;;;5004972;28;20033;-79
2022/01/20 14:12:56;;;;;;;3.33;2.30;;;4.60;99.90;;;;;;5007567;28;20022;-80
2022/01/20 14:15:25;;;;;;;3.47;2.35;;;4.70;99.90;;;;;;4991554;28;20023;-79